地図

経路データ

SID SEASON NUMBER BASIN SUBBASIN NAME ISO_TIME NATURE LAT LON WMO_WIND WMO_PRES WMO_AGENCY TRACK_TYPE DIST2LAND LANDFALL IFLAG USA_AGENCY USA_ATCF_ID USA_LAT USA_LON USA_RECORD USA_STATUS USA_WIND USA_PRES USA_SSHS USA_R34_NE USA_R34_SE USA_R34_SW USA_R34_NW USA_R50_NE USA_R50_SE USA_R50_SW USA_R50_NW USA_R64_NE USA_R64_SE USA_R64_SW USA_R64_NW USA_POCI USA_ROCI USA_RMW USA_EYE TOKYO_LAT TOKYO_LON TOKYO_GRADE TOKYO_WIND TOKYO_PRES TOKYO_R50_DIR TOKYO_R50_LONG TOKYO_R50_SHORT TOKYO_R30_DIR TOKYO_R30_LONG TOKYO_R30_SHORT TOKYO_LAND CMA_LAT CMA_LON CMA_CAT CMA_WIND CMA_PRES HKO_LAT HKO_LON HKO_CAT HKO_WIND HKO_PRES NEWDELHI_LAT NEWDELHI_LON NEWDELHI_GRADE NEWDELHI_WIND NEWDELHI_PRES NEWDELHI_CI NEWDELHI_DP NEWDELHI_POCI REUNION_LAT REUNION_LON REUNION_TYPE REUNION_WIND REUNION_PRES REUNION_TNUM REUNION_CI REUNION_RMW REUNION_R34_NE REUNION_R34_SE REUNION_R34_SW REUNION_R34_NW REUNION_R50_NE REUNION_R50_SE REUNION_R50_SW REUNION_R50_NW REUNION_R64_NE REUNION_R64_SE REUNION_R64_SW REUNION_R64_NW BOM_LAT BOM_LON BOM_TYPE BOM_WIND BOM_PRES BOM_TNUM BOM_CI BOM_RMW BOM_R34_NE BOM_R34_SE BOM_R34_SW BOM_R34_NW BOM_R50_NE BOM_R50_SE BOM_R50_SW BOM_R50_NW BOM_R64_NE BOM_R64_SE BOM_R64_SW BOM_R64_NW BOM_ROCI BOM_POCI BOM_EYE BOM_POS_METHOD BOM_PRES_METHOD NADI_LAT NADI_LON NADI_CAT NADI_WIND NADI_PRES WELLINGTON_LAT WELLINGTON_LON WELLINGTON_WIND WELLINGTON_PRES DS824_LAT DS824_LON DS824_STAGE DS824_WIND DS824_PRES TD9636_LAT TD9636_LON TD9636_STAGE TD9636_WIND TD9636_PRES TD9635_LAT TD9635_LON TD9635_WIND TD9635_PRES TD9635_ROCI NEUMANN_LAT NEUMANN_LON NEUMANN_CLASS NEUMANN_WIND NEUMANN_PRES MLC_LAT MLC_LON MLC_CLASS MLC_WIND MLC_PRES USA_GUST BOM_GUST BOM_GUST_PER REUNION_GUST REUNION_GUST_PER USA_SEAHGT USA_SEARAD_NE USA_SEARAD_SE USA_SEARAD_SW USA_SEARAD_NW STORM_SPEED STORM_DIR
1893163N20265 1893 17 NA GM NOT_NAMED 1893-06-12 06:00:00 TS 20.5000 -95.2000 35 hurdat_atl main 142 142 O_____________ hurdat_atl AL011893 20.5000 -95.2000 TS 35 0 9 34
1893163N20265 1893 17 NA GM NOT_NAMED 1893-06-12 09:00:00 TS 20.8701 -94.9403 main 192 192 P_____________ AL011893 20.8701 -94.9403 TS 37 0 12 31
1893163N20265 1893 17 NA GM NOT_NAMED 1893-06-12 12:00:00 TS 21.5286 -94.5286 40 hurdat_atl main 266 266 O____________O hurdat_atl AL011893 21.2000 -94.7000 TS 40 0 23.5000 -93.5000 TD 30 12 29
1893163N20265 1893 17 NA GM NOT_NAMED 1893-06-12 15:00:00 TS 21.9219 -94.3033 main 311 311 P____________P AL011893 21.4649 -94.4923 TS 42 0 23.7500 -93.5473 TD 30 9 28
1893163N20265 1893 17 NA GM NOT_NAMED 1893-06-12 18:00:00 TS 22.3273 -94.0818 45 hurdat_atl main 339 339 O____________O hurdat_atl AL011893 21.7000 -94.3000 TS 45 0 24.0000 -93.5000 TD 30 9 28
1893163N20265 1893 17 NA GM NOT_NAMED 1893-06-12 21:00:00 TS 22.7166 -93.8366 main 380 380 P____________P AL011893 21.9499 -94.1074 TS 47 0 24.2500 -93.2951 TD 30 8 35
1893163N20265 1893 17 NA GM NOT_NAMED 1893-06-13 00:00:00 TS 22.9667 -93.6000 50 hurdat_atl main 400 389 O____________O hurdat_atl AL011893 22.2000 -93.9000 TS 50 0 24.5000 -93.0000 TD 30 7 42
1893163N20265 1893 17 NA GM NOT_NAMED 1893-06-13 03:00:00 TS 23.2066 -93.3556 main 396 386 P____________P AL011893 22.4424 -93.6723 TS 52 0 24.7349 -92.7222 TD 30 7 45
1893163N20265 1893 17 NA GM NOT_NAMED 1893-06-13 06:00:00 TS 23.4667 -93.0667 55 hurdat_atl main 393 386 O____________O hurdat_atl AL011893 22.7000 -93.4000 TS 55 0 25.0000 -92.4000 TD 30 8 46
1893163N20265 1893 17 NA GM NOT_NAMED 1893-06-13 09:00:00 TS 23.7708 -92.7199 main 389 383 P____________P AL011893 22.9850 -93.0724 TS 57 0 25.3425 -92.0151 TD 32 9 47
1893163N20265 1893 17 NA GM NOT_NAMED 1893-06-13 12:00:00 TS 24.1000 -92.3333 60 hurdat_atl main 393 393 O____________O hurdat_atl AL011893 23.3000 -92.7000 TS 60 0 25.7000 -91.6000 TS 35 10 47
1893163N20265 1893 17 NA GM NOT_NAMED 1893-06-13 15:00:00 TS 24.4383 -91.9333 main 403 403 P____________P AL011893 23.6575 -92.3001 TS 60 0 25.9999 -91.1997 TS 37 10 48
1893163N20265 1893 17 NA GM NOT_NAMED 1893-06-13 18:00:00 TS 24.7667 -91.5333 60 hurdat_atl main 431 428 O____________O hurdat_atl AL011893 24.0000 -91.9000 TS 60 0 26.3000 -90.8000 TS 40 9 49
1893163N20265 1893 17 NA GM NOT_NAMED 1893-06-13 21:00:00 TS 25.0524 -91.1639 main 447 424 P____________P AL011893 24.2498 -91.5495 TS 60 0 26.6574 -90.3926 TS 42 9 50
1893163N20265 1893 17 NA GM NOT_NAMED 1893-06-14 00:00:00 TS 25.3333 -90.8000 60 hurdat_atl main 424 390 O____________O hurdat_atl AL011893 24.5000 -91.2000 TS 60 0 27.0000 -90.0000 TS 45 9 48
1893163N20265 1893 17 NA GM NOT_NAMED 1893-06-14 03:00:00 TS 25.6525 -90.4141 main 380 357 P____________P AL011893 24.8425 -90.8001 TS 60 0 27.2724 -89.6422 TS 47 9 47
1893163N20265 1893 17 NA GM NOT_NAMED 1893-06-14 06:00:00 TS 25.9667 -90.0333 60 hurdat_atl main 346 318 O____________O hurdat_atl AL011893 25.2000 -90.4000 TS 60 0 27.5000 -89.3000 TS 50 9 48
1893163N20265 1893 17 NA GM NOT_NAMED 1893-06-14 09:00:00 TS 26.2507 -89.6831 main 307 280 P____________P AL011893 25.5223 -90.0498 TS 60 0 27.7074 -88.9498 TS 50 8 50
1893163N20265 1893 17 NA GM NOT_NAMED 1893-06-14 12:00:00 TS 26.5000 -89.3333 60 hurdat_atl main 279 257 O____________O hurdat_atl AL011893 25.8000 -89.7000 TS 60 0 27.9000 -88.6000 TS 50 8 55
1893163N20265 1893 17 NA GM NOT_NAMED 1893-06-14 15:00:00 TS 26.7024 -88.9597 main 257 237 P____________P AL011893 26.0150 -89.2998 TS 60 0 28.0771 -88.2794 TS 50 8 60
1893163N20265 1893 17 NA GM NOT_NAMED 1893-06-14 18:00:00 TS 26.9000 -88.5667 60 hurdat_atl main 239 226 O____________O hurdat_atl AL011893 26.2000 -88.9000 TS 60 0 28.3000 -87.9000 TS 50 8 58
1893163N20265 1893 17 NA GM NOT_NAMED 1893-06-14 21:00:00 TS 27.1449 -88.1600 main 229 218 P____________P AL011893 26.3998 -88.5498 TS 60 0 28.6351 -87.3803 TS 50 9 56
1893163N20265 1893 17 NA GM NOT_NAMED 1893-06-15 00:00:00 TS 27.4000 -87.7333 60 hurdat_atl main 225 222 O____________O hurdat_atl AL011893 26.6000 -88.2000 TS 60 0 29.0000 -86.8000 TS 50 9 58
1893163N20265 1893 17 NA GM NOT_NAMED 1893-06-15 03:00:00 TS 27.6232 -87.2905 main 235 235 P____________P AL011893 26.7774 -87.8146 TS 60 0 29.3149 -86.2422 TS 50 9 60
1893163N20265 1893 17 NA GM NOT_NAMED 1893-06-15 06:00:00 TS 27.8667 -86.8333 60 hurdat_atl main 242 203 O____________O hurdat_atl AL011893 27.0000 -87.4000 TS 60 0 29.6000 -85.7000 TS 50 10 56
1893163N20265 1893 17 NA GM NOT_NAMED 1893-06-15 09:00:00 TS 28.1606 -86.3813 main 193 142 P____________P AL011893 27.3122 -86.9796 TS 60 0 29.8573 -85.1846 TS 47 10 52
1893163N20265 1893 17 NA GM NOT_NAMED 1893-06-15 12:00:00 TS 28.5000 -85.9000 60 hurdat_atl main 142 100 O____________O hurdat_atl AL011893 27.7000 -86.5000 TS 60 0 30.1000 -84.7000 TS 45 11 52
1893163N20265 1893 17 NA GM NOT_NAMED 1893-06-15 15:00:00 TS 28.8367 -85.4027 main 100 55 P____________P AL011893 28.0803 -85.9793 TS 60 0 30.3497 -84.2497 TS 45 12 51
1893163N20265 1893 17 NA GM NOT_NAMED 1893-06-15 18:00:00 TS 29.2667 -84.8000 60 hurdat_atl main 45 14 O____________O hurdat_atl AL011893 28.6000 -85.3000 TS 60 0 30.6000 -83.8000 TS 45 16 49
1893163N20265 1893 17 NA GM NOT_NAMED 1893-06-15 21:00:00 TS 29.8644 -84.0290 main 22 0 P____________P AL011893 29.3985 -84.3534 TS 60 0 30.7962 -83.3802 TS 45 18 49
1893163N20265 1893 17 NA NA NOT_NAMED 1893-06-15 23:00:00 TS 30.2586 -83.4750 60 hurdat_atl main 0 0 O____________P hurdat_atl AL011893 29.9000 -83.7000 L TS 60 0 30.9759 -83.0249 TS 45 18 52
1893163N20265 1893 17 NA NA NOT_NAMED 1893-06-16 00:00:00 TS 30.4333 -83.2000 50 hurdat_atl main 0 0 O____________O hurdat_atl AL011893 30.1000 -83.4000 TS 50 0 31.1000 -82.8000 TS 45 20 51
1893163N20265 1893 17 NA NA NOT_NAMED 1893-06-16 03:00:00 TS 31.1214 -82.2601 main 0 0 P____________P AL011893 30.8580 -82.4521 TS 47 0 31.6482 -81.8761 TS 45 22 48
1893163N20265 1893 17 NA NA NOT_NAMED 1893-06-16 06:00:00 TS 31.9000 -81.2667 45 hurdat_atl main 0 0 O____________O hurdat_atl AL011893 31.7000 -81.5000 TS 45 0 32.3000 -80.8000 TS 45 22 48
1893163N20265 1893 17 NA NA NOT_NAMED 1893-06-16 09:00:00 TS 32.5962 -80.3359 main 0 0 P____________P AL011893 32.4295 -80.6114 TS 47 0 32.9295 -79.7850 TS 45 20 49
1893163N20265 1893 17 NA NA NOT_NAMED 1893-06-16 12:00:00 TS 33.2333 -79.4667 50 hurdat_atl main 0 0 O____________O hurdat_atl AL011893 33.1000 -79.8000 TS 50 0 33.5000 -78.8000 TS 45 1000 18 50
1893163N20265 1893 17 NA NA NOT_NAMED 1893-06-16 15:00:00 TS 33.7835 -78.6682 main 9 0 P____________P AL011893 33.7143 -79.0684 TS 50 0 33.9218 -77.8680 TS 47 17 50
1893163N20265 1893 17 NA NA NOT_NAMED 1893-06-16 18:00:00 TS 34.3000 -77.9333 50 hurdat_atl main 0 0 O____________O hurdat_atl AL011893 34.3000 -78.4000 TS 50 0 34.3000 -77.0000 TS 50 16 48
1893163N20265 1893 17 NA NA NOT_NAMED 1893-06-16 21:00:00 TS 34.8519 -77.2224 main 0 0 P____________P AL011893 34.9069 -77.7489 TS 50 0 34.7419 -76.1694 TS 52 16 46
1893163N20265 1893 17 NA NA NOT_NAMED 1893-06-17 00:00:00 TS 35.4000 -76.5333 50 hurdat_atl main 0 0 O____________O hurdat_atl AL011893 35.5000 -77.1000 TS 50 0 35.2000 -75.4000 TS 55 16 46
1893163N20265 1893 17 NA NA NOT_NAMED 1893-06-17 03:00:00 TS 35.9312 -75.8351 main 0 0 P____________P AL011893 36.0722 -76.4069 TS 52 0 35.6492 -74.6913 TS 55 15 48
1893163N20265 1893 17 NA NA NOT_NAMED 1893-06-17 06:00:00 TS 36.4333 -75.1333 55 hurdat_atl main 58 58 O____________O hurdat_atl AL011893 36.6000 -75.7000 TS 55 0 36.1000 -74.0000 TS 55 15 51
1893163N20265 1893 17 NA NA NOT_NAMED 1893-06-17 09:00:00 TS 36.9059 -74.3543 main 132 132 P____________P AL011893 37.0721 -74.9990 TS 57 0 36.5735 -73.0651 TS 55 15 52
1893163N20265 1893 17 NA NA NOT_NAMED 1893-06-17 12:00:00 TS 37.3333 -73.7000 60 hurdat_atl main 165 154 O____________O hurdat_atl AL011893 37.5000 -74.3000 TS 60 0 37.0000 -72.5000 TS 55 11 42
1893163N20265 1893 17 NA NA NOT_NAMED 1893-06-17 15:00:00 TS 37.7175 -73.4196 main 162 158 P____________P AL011893 37.9147 -73.5919 TS 62 0 37.3231 -73.0752 TS 55 9 31
1893163N20265 1893 17 NA NA NOT_NAMED 1893-06-17 18:00:00 TS 38.0667 -73.1333 65 hurdat_atl main 175 175 O____________O hurdat_atl AL011893 38.3000 -72.9000 HU 65 1 37.6000 -73.6000 TS 55 10 48
1893163N20265 1893 17 NA NA NOT_NAMED 1893-06-17 21:00:00 TS 38.4001 -72.4581 main 197 197 P____________P AL011893 38.6494 -72.2487 HU 65 1 37.9016 -72.8769 TS 55 13 60
1893163N20265 1893 17 NA NA NOT_NAMED 1893-06-18 00:00:00 TS 38.7333 -71.6333 65 hurdat_atl main 248 233 O____________O hurdat_atl AL011893 39.0000 -71.6000 HU 65 1 38.2000 -71.7000 TS 55 14 61
1893163N20265 1893 17 NA NA NOT_NAMED 1893-06-18 03:00:00 TS 39.0996 -70.8521 main 238 236 P____________P AL011893 39.3997 -70.9073 HU 65 1 38.4994 -70.7418 TS 52 14 59
1893163N20265 1893 17 NA NA NOT_NAMED 1893-06-18 06:00:00 MX 39.4667 -70.0667 65 hurdat_atl main 228 217 O____________O hurdat_atl AL011893 39.8000 -70.2000 HU 65 1 38.8000 -69.8000 EX 50 14 60
1893163N20265 1893 17 NA NA NOT_NAMED 1893-06-18 09:00:00 MX 39.7967 -69.3062 main 219 208 P____________P AL011893 40.1561 -69.5433 HU 65 1 39.0778 -68.8319 EX 50 14 61
1893163N20265 1893 17 NA NA NOT_NAMED 1893-06-18 12:00:00 MX 40.1333 -68.5333 65 hurdat_atl main 217 208 O____________O hurdat_atl AL011893 40.5000 -68.8000 HU 65 1 39.4000 -68.0000 EX 50 14 59
1893163N20265 1893 17 NA NA NOT_NAMED 1893-06-18 15:00:00 MX 40.5054 -67.7435 main 233 233 P____________P AL011893 40.8412 -67.8957 HU 65 1 39.8338 -67.4391 EX 47 15 59
1893163N20265 1893 17 NA NA NOT_NAMED 1893-06-18 18:00:00 MX 40.9000 -66.8667 65 hurdat_atl main 273 245 O____________O hurdat_atl AL011893 41.2000 -66.8000 HU 65 1 40.3000 -67.0000 EX 45 16 60
1893163N20265 1893 17 NA NA NOT_NAMED 1893-06-18 21:00:00 MX 41.2987 -65.8886 main 245 202 P____________P AL011893 41.5999 -65.5099 HU 65 1 40.6965 -66.6459 EX 45 18 63
1893163N20265 1893 17 NA NA NOT_NAMED 1893-06-19 00:00:00 MX 41.7000 -64.7333 65 hurdat_atl main 206 199 O____________O hurdat_atl AL011893 42.0000 -64.1000 HU 65 1 41.1000 -66.0000 EX 45 20 67
1893163N20265 1893 17 NA NA NOT_NAMED 1893-06-19 03:00:00 MX 42.0871 -63.3638 main 219 219 P____________P AL011893 42.3580 -62.6467 HU 65 1 41.5453 -64.7979 EX 45 23 70
1893163N20265 1893 17 NA NA NOT_NAMED 1893-06-19 06:00:00 MX 42.4667 -61.8667 65 hurdat_atl main 251 251 O____________O hurdat_atl AL011893 42.7000 -61.3000 HU 65 1 42.0000 -63.0000 EX 45 24 72
1893163N20265 1893 17 NA NA NOT_NAMED 1893-06-19 09:00:00 MX 42.8532 -60.2383 main 265 265 P____________P AL011893 43.0560 -60.1867 HU 65 1 42.4476 -60.3416 EX 45 23 72
1893163N20265 1893 17 NA NA NOT_NAMED 1893-06-19 12:00:00 MX 43.2000 -58.8667 65 hurdat_atl main 282 282 O____________O hurdat_atl AL011893 43.4000 -59.3000 HU 65 1 42.8000 -58.0000 EX 45 17 67
1893163N20265 1893 17 NA NA NOT_NAMED 1893-06-19 15:00:00 MX 43.4992 -58.1498 main 295 286 P____________P AL011893 43.7137 -58.5886 HU 65 1 43.0703 -57.2722 EX 45 10 55
1893163N20265 1893 17 NA NA NOT_NAMED 1893-06-19 18:00:00 MX 43.7667 -57.7333 65 hurdat_atl main 291 291 O____________O hurdat_atl AL011893 44.0000 -58.0000 HU 65 1 43.3000 -57.2000 EX 45 9 53
1893163N20265 1893 17 NA NA NOT_NAMED 1893-06-19 21:00:00 MX 44.0073 -57.2011 main 302 299 P____________P AL011893 44.2573 -57.3769 HU 62 0 43.5072 -56.8495 EX 45 9 58
1893163N20265 1893 17 NA NA NOT_NAMED 1893-06-20 00:00:00 ET 44.2333 -56.7000 60 hurdat_atl main 299 258 O____________O hurdat_atl AL011893 44.5000 -56.8000 EX 60 -4 43.7000 -56.5000 EX 45 8 57
1893163N20265 1893 17 NA NA NOT_NAMED 1893-06-20 03:00:00 ET 44.4715 -56.2131 main 258 233 P____________P AL011893 44.7572 -56.2697 EX 60 -4 43.9000 -56.0999 EX 42 8 55
1893163N20265 1893 17 NA NA NOT_NAMED 1893-06-20 06:00:00 ET 44.7000 -55.7667 60 hurdat_atl main 233 212 O____________O hurdat_atl AL011893 45.0000 -55.8000 EX 60 -4 44.1000 -55.7000 EX 40 7 56
1893163N20265 1893 17 NA NA NOT_NAMED 1893-06-20 09:00:00 ET 44.8745 -55.3869 main 212 194 P____________P AL011893 45.1995 -55.3990 EX 60 -4 44.2246 -55.3627 EX 40 7 54
1893163N20265 1893 17 NA NA NOT_NAMED 1893-06-20 12:00:00 ET 45.1000 -55.0000 60 hurdat_atl main 196 153 O____________O hurdat_atl AL011893 45.4000 -55.0000 EX 60 -4 44.5000 -55.0000 EX 40 8 46
1893163N20265 1893 17 NA NA NOT_NAMED 1893-06-20 15:00:00 ET 45.4590 -54.5300 main 140 83 P____________P AL011893 45.6382 -54.5264 EX 60 -4 45.1007 -54.5372 EX 40 11 41
1893163N20265 1893 17 NA NA NOT_NAMED 1893-06-20 18:00:00 ET 45.9000 -54.0000 60 hurdat_atl main 83 O____________O hurdat_atl AL011893 45.9000 -54.0000 EX 60 -4 45.9000 -54.0000 EX 40 11 40

IBTrACS Databaseについて

本データベースは、米国NOAAが公開する1842年以降の世界の熱帯低気圧のベストトラックデータアーカイブInternational Best Track Archive for Climate Stewardship (IBTrACS)を、ウェブで閲覧しやすい形式に変換したものです。

最終更新日:2021-12-01